AirNav   Pilot Hours Calculator
 
 820 users online  

CL35 Warner Springs Gliderport
Warner Springs, California, USA

GOING TO WARNER SPRINGS?


FAA INFORMATION EFFECTIVE 28 FEBRUARY 2019

Location

FAA Identifier: CL35
Lat/Long: 33-17-04.2100N / 116-40-10.7650W
33-17.070167N / 116-40.179417W
33.2845028 / -116.6696569
(estimated)
Elevation: 2880 ft. / 878 m (estimated)
Variation: 13E (1985)
From city: 2 miles E of WARNER SPRINGS, CA
Time zone: UTC -8 (UTC -7 during Daylight Saving Time)
Zip code: 92086

Gliderport Operations

Gliderport use: Private use. Permission required prior to landing
Activation date: 10/1984
Control tower: no
ARTCC: LOS ANGELES CENTER
FSS: SAN DIEGO FLIGHT SERVICE STATION
Attendance: 0900-1700
Wind indicator: yes
Segmented circle: yes
Landing fee: yes

Gliderport Communications

UNICOM: 122.8
WX AWOS-3P at L08 (18 nm E): 126.575 (760-767-3308)
WX ASOS at RNM (19 nm SW): 132.025 (760-789-0736)

Nearby radio navigation aids

VOR radial/distance  VOR name  Freq  Var
JLIr319/9.6JULIAN VORTAC114.0015E
TRMr218/32.8THERMAL VORTAC116.2013E
PSPr186/37.1PALM SPRINGS VORTAC115.5013E
OCNr071/37.6OCEANSIDE VORTAC115.3015E
HDFr125/(39.2)HOMELAND VOR113.4014E

Gliderport Services

Runway Information

Runway 8/26

Dimensions: 3500 x 70 ft. / 1067 x 21 m
Surface: asphalt
RUNWAY 8  RUNWAY 26
Latitude: 33-17.060333N33-17.080000N
Longitude: 116-40.522667W116-39.836167W
Elevation: 2873.0 ft.2914.0 ft.
Traffic pattern: leftleft
Obstructions: none200 ft. hill, 5200 ft. from runway

Gliderport Ownership and Management from official FAA records

Ownership: Privately-owned
Owner: WARNER SPRINGS RANCH RESORT, LLC
31930 HWY 79
WARNER SPRINGS, CA 92086
Phone 760-782-4200
SKY SAILING 31930 HWY 79.
Manager: BRET WILLAT
SKY SAILING 31930 HWY 79
WARNER SPRINGS, CA 92086
Phone 760-782-0404
LEASEE.

Gliderport Operational Statistics

Aircraft based on the field: 80
Single engine airplanes: 10
Gliders airplanes: 70
    

Instrument Procedures

There are no published instrument procedures at CL35.

Some nearby airports with instrument procedures:

L08 - Borrego Valley Airport (18 nm E)
KRNM - Ramona Airport (19 nm SW)
F70 - French Valley Airport (29 nm NW)
L18 - Fallbrook Community Airpark (29 nm W)
KSEE - Gillespie Field Airport (31 nm SW)
 
Loc | Ops | Rwys | IFR | FBO | Links
Com | Nav | Svcs | Stats | Notes
Area around CL35 (Warner Springs Gliderport)
 
Road maps at: MapQuest Bing Google
 
Aerial photo
WARNING: Photo may not be current or correct
Aerial photo of CL35 (Warner Springs Gliderport)
Photo by Steve Lupinacci
Photo taken 27-May-2008

Do you have a better or more recent aerial photo of Warner Springs Gliderport that you would like to share? If so, please send us your photo.

 
Sectional chart

 
Airport distance calculator
Flying to Warner Springs Gliderport? Find the distance to fly.

From to CL35

Sunrise and sunset
Times for 20-Mar-2019
 Local
(UTC-7)
 Zulu
(UTC)
Morning civil twilight06:2713:27
Sunrise06:5113:51
Sunset18:5701:57
Evening civil twilight19:2202:22

Current date and time
Zulu (UTC)  21-Mar-2019 02:42:10
Local (UTC-7)  20-Mar-2019 19:42:10
 
METAR
KL08 
18nm E 
210215Z AUTO 25004KT 10SM FEW065 15/02 A2998 RMK AO2
KRNM 
20nm SW 
210153Z 28010KT 10SM BKN012 BKN028 OVC047 11/09 A3005 RMK AO2 RAB37E52 SLP172 P0001 T01110094
KF70 
29nm NW 
210215Z AUTO 36010KT 3SM SCT018 BKN027 OVC046 09/07 A3006 RMK AO1 P0010
KL18 
29nm W 
210215Z AUTO 10SM SCT014 SCT028 BKN042 12/10 A3006 RMK AO2
KSEE 
32nm SW 
210159Z 28008KT 10SM SCT019 SCT026 BKN055 14/11 A3005
KCRQ 
32nm W 
210153Z 25005KT 10SM FEW021 FEW060 SCT075 14/12 A3004 RMK AO2 RAE14B34E43 SLP172 P0000 T01440122
KTRM 
33nm NE 
210152Z AUTO 29010KT 10SM CLR 20/02 A2991 RMK AO2 SLP130 T02000022
KPSP 
33nm N 
210153Z 32013KT 10SM CLR 18/03 A2994 RMK AO2 SLP137 T01830028
KNFG 
33nm W 
210217Z 25004KT 10SM BKN031 BKN042 BKN085 13/12 A3005 RMK AO2 RAB0158E03 P0000 T01330122 $
KNKX 
34nm SW 
210155Z 28008KT 10SM SCT014 16/12 A3005 RMK AO2 SLP173 T01560117
TAF
KCRQ 
32nm W 
201929Z 2019/2118 17007KT P6SM SCT030 BKN050 FM202000 22010G18KT P6SM -SHRA BKN025 BKN050 TEMPO 2020/2023 4SM TSRA BKN025CB FM210100 25008KT P6SM BKN035 FM210500 VRB05KT P6SM BKN030 FM211700 VRB05KT P6SM SCT035
KTRM 
33nm NE 
201720Z 2018/2118 31010KT P6SM SCT100 FM202300 31015G24KT P6SM BKN070 BKN100 FM210800 32010KT P6SM SCT070
KPSP 
33nm N 
202147Z 2022/2118 32012G22KT P6SM SCT060 BKN100 TEMPO 2022/2101 02010KT FM210700 32007KT P6SM SCT070
KNFG 
33nm W 
2021/2121 22010KT 9999 BKN030 BKN080 QNH2997INS TEMPO 2021/2101 6000 -RA BR BECMG 2102/2104 VRB04KT 9999 BKN015 OVC035 QNH3005INS FM211900 24009KT 9999 BKN050 BKN070 QNH3008INS T15/2022Z T08/2112Z
KNKX 
34nm SW 
2021/2121 28010KT 9999 VCTS SCT030 BKN050 BKN100 QNH2999INS TEMPO 2021/2101 28013G23KT 4800 -TSRA BKN020CB OVC050 FM210230 VRB05KT 9999 SCT020 BKN035 QNH3002INS BECMG 2116/2118 26010KT 9999 SCT020 BKN035 QNH3009INS T15/2021Z T12/2113Z
NOTAMs
Click for the latest NOTAMs
NOTAMs are issued by the DoD/FAA and will open in a separate window not controlled by AirNav.

 

 
 

Would you like to see your business listed on this page?

 If your business provides an interesting product or service to pilots, flight crews, aircraft, or users of the Warner Springs Gliderport, you should consider listing it here.  To start the listing process, click on the button below
 
Add a business
 

Other Pages about Warner Springs Gliderport

www.agcsc.org/warner_springs_info.html
 
Update a link
 
Copyright © AirNav, LLC. All rights reserved. Privacy Policy  Contact